createdAt,value
2022-07-29T00:01:44.659Z,23.42
2022-07-29T00:04:12.386Z,20.55
2022-07-29T00:06:39.038Z,20.92
2022-07-29T00:09:05.903Z,21.63
2022-07-29T00:11:32.291Z,18.13
2022-07-29T00:13:58.710Z,15.63
2022-07-29T00:16:25.147Z,15.02
2022-07-29T00:18:53.866Z,14.55
2022-07-29T00:21:20.426Z,14.45
2022-07-29T00:23:46.854Z,15.38
2022-07-29T00:26:13.262Z,13.23
2022-07-29T00:28:39.712Z,13.75
2022-07-29T00:31:06.387Z,14.02
2022-07-29T00:33:32.901Z,14.27
2022-07-29T00:35:59.324Z,15.10
2022-07-29T00:38:25.788Z,12.50
2022-07-29T00:40:52.222Z,12.63
2022-07-29T00:43:18.808Z,14.50
2022-07-29T00:45:45.655Z,13.35
2022-07-29T00:48:12.261Z,13.68
2022-07-29T00:50:38.875Z,12.27
2022-07-29T00:53:08.108Z,13.45
2022-07-29T00:55:35.518Z,13.80
2022-07-29T00:58:02.150Z,13.13
2022-07-29T01:00:31.514Z,13.73
2022-07-29T01:02:58.123Z,14.63
2022-07-29T01:05:51.559Z,15.77
2022-07-29T01:08:16.290Z,16.67
2022-07-29T01:10:45.036Z,15.25
2022-07-29T01:13:12.855Z,12.00
2022-07-29T01:15:49.207Z,15.95
2022-07-29T01:18:31.189Z,14.75
2022-07-29T01:21:15.572Z,14.68
2022-07-29T01:24:07.239Z,12.95
2022-07-29T01:26:55.392Z,13.35
2022-07-29T01:29:21.798Z,12.75
2022-07-29T01:31:59.034Z,12.43
2022-07-29T01:34:45.783Z,12.60
2022-07-29T01:37:26.093Z,12.05
2022-07-29T01:39:56.312Z,12.98
2022-07-29T01:42:36.412Z,12.23
2022-07-29T01:45:17.942Z,11.18
2022-07-29T01:47:47.564Z,16.35
2022-07-29T01:50:18.511Z,15.32
2022-07-29T01:52:50.729Z,15.68
2022-07-29T01:55:20.969Z,14.90
2022-07-29T01:57:49.094Z,12.25
2022-07-29T02:00:16.951Z,12.80
2022-07-29T02:02:46.705Z,15.15
2022-07-29T02:05:16.628Z,13.38
2022-07-29T02:07:43.994Z,13.48
2022-07-29T02:10:13.184Z,12.38
2022-07-29T02:12:41.408Z,11.85
2022-07-29T02:15:10.808Z,13.77
2022-07-29T02:17:49.817Z,14.55
2022-07-29T02:20:17.116Z,15.20
2022-07-29T02:22:45.841Z,14.45
2022-07-29T02:25:14.730Z,17.05
2022-07-29T02:27:43.572Z,15.90
2022-07-29T02:30:11.657Z,18.02
2022-07-29T02:32:40.983Z,18.70
2022-07-29T02:35:10.206Z,18.02
2022-07-29T02:37:37.801Z,18.70
2022-07-29T02:40:06.964Z,18.90
2022-07-29T02:42:35.916Z,30.60
2022-07-29T02:45:02.318Z,40.90
2022-07-29T02:47:41.273Z,42.15
2022-07-29T02:50:20.998Z,43.33
2022-07-29T02:52:56.610Z,53.35
2022-07-29T02:55:33.028Z,71.53
2022-07-29T02:58:04.379Z,92.47
2022-07-29T03:00:34.278Z,98.60
2022-07-29T03:03:04.665Z,80.03
2022-07-29T03:05:32.086Z,85.53
2022-07-29T03:08:01.973Z,85.22
2022-07-29T03:10:29.269Z,91.55
2022-07-29T03:12:56.571Z,76.25
2022-07-29T03:15:24.124Z,78.28
2022-07-29T03:17:53.513Z,65.70
2022-07-29T03:20:20.395Z,66.65
2022-07-29T03:22:49.410Z,62.38
2022-07-29T03:25:17.475Z,67.00
2022-07-29T03:27:44.886Z,69.72
2022-07-29T03:30:12.562Z,67.03
2022-07-29T03:32:45.265Z,70.85
2022-07-29T03:35:12.266Z,66.80
2022-07-29T03:37:38.710Z,61.63
2022-07-29T03:40:09.687Z,74.32
2022-07-29T03:42:38.903Z,81.72
2022-07-29T03:45:09.241Z,72.28
2022-07-29T03:47:51.126Z,75.57
2022-07-29T03:50:21.220Z,75.28
2022-07-29T03:52:48.514Z,73.20
2022-07-29T03:55:16.143Z,81.82
2022-07-29T03:57:43.576Z,79.72
2022-07-29T04:00:11.114Z,72.72
2022-07-29T04:02:40.148Z,73.03
2022-07-29T04:05:13.527Z,72.95
2022-07-29T04:07:40.629Z,82.45
2022-07-29T04:10:08.412Z,76.88
2022-07-29T04:12:34.798Z,79.28
2022-07-29T04:15:01.181Z,89.45
2022-07-29T04:17:27.555Z,85.00
2022-07-29T04:19:53.945Z,78.25
2022-07-29T04:22:20.359Z,94.85
2022-07-29T04:24:46.784Z,90.93
2022-07-29T04:27:13.328Z,76.43
2022-07-29T04:29:56.112Z,79.78
2022-07-29T04:32:23.806Z,77.63
2022-07-29T04:34:50.242Z,79.65
2022-07-29T04:37:16.722Z,75.65
2022-07-29T04:39:43.215Z,82.35
2022-07-29T04:42:09.589Z,72.47
2022-07-29T04:44:37.228Z,76.40
2022-07-29T04:47:08.763Z,69.90
2022-07-29T04:49:35.199Z,71.18
2022-07-29T04:52:01.668Z,71.25
2022-07-29T04:54:28.092Z,72.88
2022-07-29T04:56:54.528Z,69.57
2022-07-29T04:59:20.930Z,75.18
2022-07-29T05:01:47.414Z,76.53
2022-07-29T05:04:14.197Z,81.70
2022-07-29T05:06:40.899Z,77.28
2022-07-29T05:09:07.274Z,74.55
2022-07-29T05:11:33.794Z,76.10
2022-07-29T05:14:00.176Z,77.07
2022-07-29T05:16:26.837Z,77.22
2022-07-29T05:18:53.352Z,78.03
2022-07-29T05:21:19.785Z,77.22
2022-07-29T05:23:46.173Z,76.57
2022-07-29T05:26:13.049Z,70.40
2022-07-29T05:28:39.425Z,68.13
2022-07-29T05:31:05.826Z,74.28
2022-07-29T05:33:35.671Z,75.40
2022-07-29T05:36:06.403Z,73.07
2022-07-29T05:38:32.933Z,65.10
2022-07-29T05:41:00.377Z,65.82
2022-07-29T05:43:30.270Z,63.58
2022-07-29T05:45:56.949Z,63.50
2022-07-29T05:48:23.447Z,59.78
2022-07-29T05:50:49.934Z,53.45
2022-07-29T05:53:19.074Z,53.40
2022-07-29T05:55:46.792Z,54.25
2022-07-29T05:58:13.366Z,53.88
2022-07-29T06:00:39.798Z,52.78
2022-07-29T06:03:06.439Z,53.42
2022-07-29T06:05:32.874Z,54.25
2022-07-29T06:07:59.306Z,55.63
2022-07-29T06:10:26.189Z,54.03
2022-07-29T06:12:53.922Z,53.53
2022-07-29T06:15:20.497Z,57.20
2022-07-29T06:17:59.172Z,55.88
2022-07-29T06:20:30.532Z,58.65
2022-07-29T06:22:57.648Z,56.78
2022-07-29T06:25:24.110Z,57.28
2022-07-29T06:27:50.625Z,56.88
2022-07-29T06:30:17.078Z,55.58
2022-07-29T06:32:44.555Z,57.25
2022-07-29T06:35:41.863Z,55.80
2022-07-29T06:37:59.561Z,55.63
2022-07-29T06:40:44.980Z,52.88
2022-07-29T06:43:11.753Z,55.17
2022-07-29T06:45:40.484Z,56.25
2022-07-29T06:48:07.009Z,56.38
2022-07-29T06:50:33.497Z,56.13
2022-07-29T06:52:59.872Z,56.05
2022-07-29T06:55:26.297Z,53.30
2022-07-29T06:57:52.747Z,52.00
2022-07-29T07:00:19.182Z,56.47
2022-07-29T07:02:45.627Z,57.13
2022-07-29T07:05:13.835Z,56.42
2022-07-29T07:07:40.273Z,55.35
2022-07-29T07:10:07.050Z,57.33
2022-07-29T07:12:33.449Z,57.25
2022-07-29T07:14:59.887Z,53.60
2022-07-29T07:17:26.279Z,56.17
2022-07-29T07:19:52.672Z,55.90
2022-07-29T07:22:19.098Z,55.55
2022-07-29T07:24:45.504Z,56.08
2022-07-29T07:27:11.981Z,59.55
2022-07-29T07:29:41.946Z,57.05
2022-07-29T07:32:11.149Z,57.20
2022-07-29T07:34:38.815Z,54.53
2022-07-29T07:37:05.639Z,54.70
2022-07-29T07:39:32.054Z,53.78
2022-07-29T07:41:58.475Z,54.13
2022-07-29T07:44:25.070Z,59.85
2022-07-29T07:46:51.486Z,50.88
2022-07-29T07:49:17.916Z,60.08
2022-07-29T07:51:44.358Z,43.53
2022-07-29T07:54:18.465Z,42.67
2022-07-29T07:56:49.835Z,40.88
2022-07-29T07:59:19.351Z,40.08
2022-07-29T08:01:48.184Z,39.60
2022-07-29T08:04:27.757Z,36.03
2022-07-29T08:06:55.568Z,46.78
2022-07-29T08:09:29.257Z,45.47
2022-07-29T08:11:58.481Z,45.00
2022-07-29T08:14:25.023Z,41.90
2022-07-29T08:16:52.329Z,42.60
2022-07-29T08:19:18.966Z,42.22
2022-07-29T08:21:45.414Z,38.47
2022-07-29T08:24:30.523Z,40.75
2022-07-29T08:26:57.004Z,46.13
2022-07-29T08:29:23.414Z,33.63
2022-07-29T08:31:49.960Z,35.60
2022-07-29T08:34:16.492Z,38.80
2022-07-29T08:36:42.877Z,39.10
2022-07-29T08:39:09.282Z,40.47
2022-07-29T08:41:36.323Z,37.97
2022-07-29T08:44:02.752Z,41.28
2022-07-29T08:46:29.247Z,40.25
2022-07-29T08:48:56.319Z,42.95
2022-07-29T08:51:23.042Z,42.55
2022-07-29T08:53:51.011Z,38.15
2022-07-29T08:56:19.599Z,39.75
2022-07-29T08:58:49.858Z,42.08
2022-07-29T09:01:23.391Z,40.92
2022-07-29T09:04:08.308Z,38.03
2022-07-29T09:06:38.353Z,48.70
2022-07-29T09:09:05.174Z,53.60
2022-07-29T09:11:33.480Z,49.78
2022-07-29T09:14:00.316Z,57.60
2022-07-29T09:16:50.782Z,65.30
2022-07-29T09:19:24.972Z,74.10
2022-07-29T09:22:01.660Z,70.25
2022-07-29T09:24:42.143Z,53.80
2022-07-29T09:27:26.843Z,47.88
2022-07-29T09:32:34.420Z,44.50
2022-07-29T09:35:17.406Z,43.88
2022-07-29T09:37:45.580Z,43.63
2022-07-29T09:40:14.020Z,43.55
2022-07-29T09:42:40.627Z,40.13
2022-07-29T09:45:07.991Z,41.13
2022-07-29T09:47:50.004Z,44.67
2022-07-29T09:50:16.950Z,39.53
2022-07-29T09:52:52.395Z,37.58
2022-07-29T09:55:20.066Z,33.67
2022-07-29T09:57:47.823Z,35.30
2022-07-29T10:00:20.355Z,45.72
2022-07-29T10:02:48.097Z,42.67
2022-07-29T10:05:20.649Z,44.90
2022-07-29T10:07:57.396Z,40.97
2022-07-29T10:10:34.660Z,44.20
2022-07-29T10:13:13.527Z,46.85
2022-07-29T10:15:45.043Z,38.88
2022-07-29T10:18:13.648Z,40.75
2022-07-29T10:20:40.688Z,41.33
2022-07-29T10:23:07.265Z,40.42
2022-07-29T10:25:33.851Z,41.28
2022-07-29T10:28:00.387Z,39.80
2022-07-29T10:30:27.978Z,42.88
2022-07-29T10:33:28.309Z,42.38
2022-07-29T10:36:05.904Z,39.92
2022-07-29T10:38:35.260Z,38.72
2022-07-29T10:41:43.656Z,42.58
2022-07-29T10:44:19.316Z,40.40
2022-07-29T10:46:46.998Z,38.60
2022-07-29T10:49:18.587Z,41.83
2022-07-29T10:51:51.068Z,42.67
2022-07-29T10:54:18.718Z,41.15
2022-07-29T10:56:45.594Z,41.75
2022-07-29T10:59:19.214Z,40.92
2022-07-29T11:01:52.464Z,40.83
2022-07-29T11:04:45.039Z,43.05
2022-07-29T11:07:12.160Z,38.78
2022-07-29T11:09:39.538Z,40.47
2022-07-29T11:12:37.324Z,35.70
2022-07-29T11:15:07.879Z,37.70
2022-07-29T11:17:53.317Z,39.05
2022-07-29T11:20:38.122Z,32.70
2022-07-29T11:23:33.784Z,26.13
2022-07-29T11:26:18.530Z,28.40
2022-07-29T11:28:52.075Z,25.95
2022-07-29T11:31:44.647Z,26.85
2022-07-29T11:34:33.378Z,30.60
2022-07-29T11:37:07.346Z,34.10
2022-07-29T11:39:36.728Z,39.83
2022-07-29T11:42:28.480Z,34.53
2022-07-29T11:45:08.434Z,24.95
2022-07-29T11:47:47.810Z,23.83
2022-07-29T11:50:18.957Z,25.45
2022-07-29T11:52:53.553Z,21.83
2022-07-29T11:55:23.465Z,20.92
2022-07-29T11:58:03.572Z,20.23
2022-07-29T12:00:36.908Z,21.98
2022-07-29T12:03:06.549Z,24.00
2022-07-29T12:05:39.795Z,19.30
2022-07-29T12:08:19.927Z,20.50
2022-07-29T12:10:48.143Z,23.88
2022-07-29T12:13:17.215Z,22.40
2022-07-29T12:15:52.212Z,32.25
2022-07-29T12:18:23.986Z,33.63
2022-07-29T12:21:03.403Z,25.90
2022-07-29T12:23:34.469Z,33.92
2022-07-29T12:26:04.941Z,31.58
2022-07-29T12:28:38.327Z,29.38
2022-07-29T12:31:05.542Z,36.72
2022-07-29T12:33:32.476Z,36.60
2022-07-29T12:36:12.795Z,36.33
2022-07-29T12:38:44.052Z,36.33
2022-07-29T12:41:11.326Z,35.40
2022-07-29T12:43:37.752Z,35.47
2022-07-29T12:46:15.855Z,36.70
2022-07-29T12:48:43.903Z,36.00
2022-07-29T12:51:12.610Z,30.70
2022-07-29T12:53:39.783Z,26.70
2022-07-29T12:56:26.699Z,31.67
2022-07-29T12:58:53.916Z,35.63
2022-07-29T13:01:20.982Z,33.45
2022-07-29T13:03:59.855Z,18.85
2022-07-29T13:06:46.158Z,22.55
2022-07-29T13:09:19.442Z,20.67
2022-07-29T13:11:51.776Z,14.75
2022-07-29T13:14:56.934Z,15.55
2022-07-29T13:17:24.108Z,14.95
2022-07-29T13:19:52.934Z,8.52
2022-07-29T13:22:22.252Z,9.27
2022-07-29T13:24:48.600Z,10.45
2022-07-29T13:27:16.668Z,10.32
2022-07-29T13:29:43.106Z,12.90
2022-07-29T13:32:09.671Z,10.23
2022-07-29T13:34:36.074Z,13.55
2022-07-29T13:37:03.060Z,16.02
2022-07-29T13:39:29.540Z,14.43
2022-07-29T13:41:56.302Z,13.40
2022-07-29T13:44:24.074Z,14.80
2022-07-29T13:46:50.977Z,15.55
2022-07-29T13:49:17.477Z,13.57
2022-07-29T13:51:44.188Z,14.05
2022-07-29T13:54:10.599Z,13.93
2022-07-29T13:56:37.069Z,13.00
2022-07-29T13:59:03.471Z,11.90
2022-07-29T14:01:31.321Z,15.02
2022-07-29T14:03:57.990Z,14.23
2022-07-29T14:06:24.626Z,12.48
2022-07-29T14:08:51.954Z,15.45
2022-07-29T14:11:18.597Z,15.10
2022-07-29T14:13:45.417Z,11.80
2022-07-29T14:16:11.995Z,13.93
2022-07-29T14:18:38.593Z,11.57
2022-07-29T14:21:05.073Z,12.85
2022-07-29T14:23:31.552Z,12.80
2022-07-29T14:25:58.291Z,13.18
2022-07-29T14:28:24.685Z,14.30
2022-07-29T14:30:51.048Z,14.05
2022-07-29T14:33:17.870Z,14.40
2022-07-29T14:35:45.439Z,11.10
2022-07-29T14:38:11.983Z,12.05
2022-07-29T14:40:38.922Z,11.43
2022-07-29T14:43:05.422Z,11.07
2022-07-29T14:45:32.425Z,11.68
2022-07-29T14:47:58.971Z,13.00
2022-07-29T14:50:31.497Z,12.23
2022-07-29T14:52:59.109Z,12.00
2022-07-29T14:55:25.622Z,12.27
2022-07-29T14:57:55.435Z,13.50
2022-07-29T15:00:25.274Z,12.38
2022-07-29T15:03:01.998Z,13.60
2022-07-29T15:05:29.440Z,14.07
2022-07-29T15:07:55.846Z,13.10
2022-07-29T15:10:22.327Z,15.35
2022-07-29T15:12:51.273Z,16.27
2022-07-29T15:15:17.738Z,15.48
2022-07-29T15:17:44.182Z,15.07
2022-07-29T15:20:13.607Z,14.77
2022-07-29T15:22:42.096Z,14.90
2022-07-29T15:25:10.525Z,14.73
2022-07-29T15:27:37.109Z,14.93
2022-07-29T15:30:04.157Z,16.38
2022-07-29T15:32:30.590Z,18.77
2022-07-29T15:34:56.984Z,20.85
2022-07-29T15:37:23.460Z,21.77
2022-07-29T15:39:50.798Z,21.73
2022-07-29T15:42:17.843Z,25.88
2022-07-29T15:44:44.339Z,25.92
2022-07-29T15:47:10.822Z,22.58
2022-07-29T15:49:48.000Z,21.33
2022-07-29T15:52:18.231Z,19.05
2022-07-29T15:54:44.734Z,20.30
2022-07-29T15:57:11.169Z,20.45
2022-07-29T15:59:37.598Z,26.40
2022-07-29T16:02:04.206Z,56.67
2022-07-29T16:04:31.915Z,59.47
2022-07-29T16:06:58.777Z,36.20
2022-07-29T16:09:26.528Z,21.95
2022-07-29T16:11:53.968Z,23.40
2022-07-29T16:14:20.770Z,22.80
2022-07-29T16:16:47.577Z,24.55
2022-07-29T16:19:14.583Z,17.60
2022-07-29T16:21:42.533Z,26.75
2022-07-29T16:24:23.134Z,18.65
2022-07-29T16:30:09.590Z,23.45
2022-07-29T16:32:36.182Z,21.35
2022-07-29T16:35:05.058Z,20.85
2022-07-29T16:37:35.290Z,19.75
2022-07-29T16:40:02.295Z,23.52
2022-07-29T16:42:45.677Z,24.52
2022-07-29T16:45:12.835Z,25.33
2022-07-29T16:47:39.331Z,28.42
2022-07-29T16:50:06.249Z,24.90
2022-07-29T16:52:32.712Z,23.13
2022-07-29T16:54:59.141Z,27.92
2022-07-29T16:57:25.862Z,30.70
2022-07-29T16:59:52.493Z,29.15
2022-07-29T17:02:18.965Z,24.00
2022-07-29T17:04:45.498Z,28.42
2022-07-29T17:07:12.029Z,24.55
2022-07-29T17:09:38.528Z,24.45
2022-07-29T17:12:05.466Z,27.88
2022-07-29T17:14:32.270Z,22.92
2022-07-29T17:17:01.959Z,26.38
2022-07-29T17:19:32.212Z,26.15
2022-07-29T17:22:09.426Z,25.17
2022-07-29T17:24:38.827Z,26.30
2022-07-29T17:27:06.155Z,26.70
2022-07-29T17:29:32.743Z,22.10
2022-07-29T17:31:59.990Z,29.40
2022-07-29T17:34:26.940Z,20.23
2022-07-29T17:36:53.552Z,23.95
2022-07-29T17:39:19.949Z,29.67
2022-07-29T17:41:46.819Z,28.35
2022-07-29T17:44:13.498Z,29.52
2022-07-29T17:46:40.642Z,27.10
2022-07-29T17:49:07.335Z,26.80
2022-07-29T17:51:34.325Z,24.13
2022-07-29T17:54:00.846Z,19.15
2022-07-29T17:56:28.367Z,27.70
2022-07-29T17:58:55.088Z,28.40
2022-07-29T18:01:23.385Z,31.70
2022-07-29T18:03:50.079Z,29.60
2022-07-29T18:06:16.442Z,32.50
2022-07-29T18:08:43.134Z,30.55
2022-07-29T18:11:09.548Z,23.63
2022-07-29T18:13:42.260Z,22.27
2022-07-29T18:16:09.411Z,28.98
2022-07-29T18:18:36.064Z,20.60
2022-07-29T18:21:03.445Z,25.60
2022-07-29T18:23:30.206Z,23.00
2022-07-29T18:25:56.770Z,23.98
2022-07-29T18:28:23.655Z,14.30
2022-07-29T18:30:50.378Z,16.75
2022-07-29T18:33:22.348Z,19.13
2022-07-29T18:35:51.945Z,18.40
2022-07-29T18:38:18.958Z,22.48
2022-07-29T18:40:45.916Z,15.38
2022-07-29T18:43:12.923Z,14.00
2022-07-29T18:45:39.734Z,14.27
2022-07-29T18:48:08.373Z,17.35
2022-07-29T18:50:40.238Z,16.48
2022-07-29T18:53:06.862Z,17.80
2022-07-29T18:55:33.366Z,18.70
2022-07-29T18:58:05.608Z,18.92
2022-07-29T19:00:36.029Z,19.75
2022-07-29T19:03:13.673Z,19.63
2022-07-29T19:05:43.949Z,20.70
2022-07-29T19:08:10.699Z,21.67
2022-07-29T19:10:37.136Z,21.15
2022-07-29T19:13:03.670Z,20.33
2022-07-29T19:15:30.475Z,19.52
2022-07-29T19:18:00.961Z,19.63
2022-07-29T19:20:28.315Z,18.13
2022-07-29T19:22:58.720Z,16.77
2022-07-29T19:25:32.823Z,18.83
2022-07-29T19:28:02.259Z,16.85
2022-07-29T19:30:28.704Z,14.70
2022-07-29T19:32:55.194Z,14.15
2022-07-29T19:35:24.548Z,13.63
2022-07-29T19:37:52.151Z,14.25
2022-07-29T19:40:18.899Z,14.82
2022-07-29T19:42:45.563Z,17.25
2022-07-29T19:45:12.110Z,14.57
2022-07-29T19:47:38.556Z,16.13
2022-07-29T19:50:05.571Z,21.00
2022-07-29T19:52:32.337Z,17.70
2022-07-29T19:54:58.861Z,16.95
2022-07-29T19:57:25.283Z,16.13
2022-07-29T19:59:52.715Z,16.90
2022-07-29T20:02:19.323Z,14.55
2022-07-29T20:04:45.874Z,17.52
2022-07-29T20:07:13.484Z,18.67
2022-07-29T20:09:41.245Z,20.00
2022-07-29T20:12:09.041Z,19.17
2022-07-29T20:14:36.063Z,18.58
2022-07-29T20:17:02.847Z,20.55
2022-07-29T20:19:29.486Z,19.05
2022-07-29T20:21:55.901Z,19.90
2022-07-29T20:24:22.421Z,26.60
2022-07-29T20:26:52.324Z,21.85
2022-07-29T20:29:26.806Z,20.10
2022-07-29T20:31:56.442Z,18.08
2022-07-29T20:34:23.127Z,19.83
2022-07-29T20:36:49.736Z,23.92
2022-07-29T20:39:16.335Z,20.50
2022-07-29T20:41:42.701Z,18.80
2022-07-29T20:44:09.312Z,20.88
2022-07-29T20:46:35.738Z,19.27
2022-07-29T20:49:02.325Z,19.75
2022-07-29T20:51:28.776Z,18.67
2022-07-29T20:53:55.209Z,18.88
2022-07-29T20:56:21.714Z,18.15
2022-07-29T20:58:48.129Z,18.98
2022-07-29T21:01:14.783Z,23.77
2022-07-29T21:03:41.344Z,26.00
2022-07-29T21:06:09.042Z,23.48
2022-07-29T21:08:35.749Z,24.52
2022-07-29T21:11:02.138Z,23.10
2022-07-29T21:13:28.523Z,24.73
2022-07-29T21:15:59.565Z,23.60
2022-07-29T21:18:34.236Z,23.90
2022-07-29T21:21:01.257Z,30.42
2022-07-29T21:23:28.088Z,26.88
2022-07-29T21:25:54.885Z,25.30
2022-07-29T21:28:27.729Z,23.63
2022-07-29T21:30:55.718Z,24.33
2022-07-29T21:33:22.379Z,26.88
2022-07-29T21:36:26.621Z,26.40
2022-07-29T21:38:36.448Z,30.77
2022-07-29T21:41:04.727Z,25.67
2022-07-29T21:43:31.600Z,25.17
2022-07-29T21:46:00.095Z,21.70
2022-07-29T21:48:27.975Z,26.98
2022-07-29T21:50:54.882Z,23.17
2022-07-29T21:53:22.115Z,23.20
2022-07-29T21:55:54.291Z,21.77
2022-07-29T21:58:22.769Z,23.75
2022-07-29T22:00:49.184Z,22.85
2022-07-29T22:03:15.718Z,22.50
2022-07-29T22:05:42.277Z,26.23
2022-07-29T22:08:08.710Z,21.88
2022-07-29T22:10:35.686Z,25.80
2022-07-29T22:13:03.091Z,25.52
2022-07-29T22:15:30.800Z,30.23
2022-07-29T22:17:57.888Z,34.13
2022-07-29T22:20:24.745Z,33.13
2022-07-29T22:22:51.362Z,27.48
2022-07-29T22:25:17.877Z,33.72
2022-07-29T22:27:44.389Z,36.00
2022-07-29T22:30:11.306Z,30.88
2022-07-29T22:32:37.752Z,34.22
2022-07-29T22:35:04.487Z,32.35
2022-07-29T22:37:31.060Z,33.65
2022-07-29T22:39:57.502Z,33.63
2022-07-29T22:42:23.954Z,33.30
2022-07-29T22:44:50.412Z,35.00
2022-07-29T22:47:16.938Z,32.38
2022-07-29T22:49:43.382Z,34.55
2022-07-29T22:52:09.906Z,27.48
2022-07-29T22:54:38.224Z,31.60
2022-07-29T22:57:06.018Z,30.70
2022-07-29T22:59:32.430Z,27.48
2022-07-29T23:01:59.365Z,25.80
2022-07-29T23:04:25.850Z,25.30
2022-07-29T23:06:52.274Z,24.75
2022-07-29T23:09:18.903Z,24.77
2022-07-29T23:11:47.071Z,25.85
2022-07-29T23:14:13.525Z,24.02
2022-07-29T23:16:40.056Z,24.98
2022-07-29T23:19:06.522Z,27.63
2022-07-29T23:21:33.118Z,25.35
2022-07-29T23:23:59.527Z,28.70
2022-07-29T23:26:26.012Z,25.98
2022-07-29T23:28:52.452Z,28.95
2022-07-29T23:31:19.020Z,26.33
2022-07-29T23:33:45.620Z,26.40
2022-07-29T23:36:12.042Z,25.45
2022-07-29T23:38:40.830Z,26.88
2022-07-29T23:41:09.539Z,28.40
2022-07-29T23:43:37.132Z,26.45
2022-07-29T23:46:04.348Z,27.23
2022-07-29T23:48:34.437Z,30.25
2022-07-29T23:51:01.113Z,28.90
2022-07-29T23:53:28.394Z,29.45
2022-07-29T23:55:55.626Z,31.20
2022-07-29T23:58:22.072Z,31.80
